Time;durP1;ratioP1;P1;durP2;ratioP2;P2;SDS_P1;SDS_P2;PMS_P1;PMS_P2;Temp;Humidity;BMP_temperature;BMP_pressure;BME280_temperature;BME280_humidity;BME280_pressure;Samples;Min_cycle;Max_cycle;Signal;HPM_P1;HPM_P2
2022/09/05 00:00:14;;;;;;;11.20;5.65;;;;;;;20.37;62.06;99941.94;5017529;28;20033;-69
2022/09/05 00:03:13;;;;;;;5.95;5.32;;;;;;;20.48;61.48;99951.38;5012259;28;20592;-69
2022/09/05 00:06:13;;;;;;;6.47;5.22;;;;;;;20.27;62.59;99952.00;5020660;28;20069;-69
2022/09/05 00:08:50;;;;;;;6.75;5.65;;;;;;;20.25;62.81;99963.75;5013711;28;20072;-69
2022/09/05 00:11:45;;;;;;;12.25;5.45;;;;;;;20.12;63.57;99959.53;5015380;28;20030;-69
2022/09/05 00:14:29;;;;;;;8.65;5.55;;;;;;;20.10;63.51;99959.13;5011504;28;20034;-69
2022/09/05 00:17:03;;;;;;;8.95;5.38;;;;;;;20.27;62.94;99967.03;5020353;28;20041;-69
2022/09/05 00:19:55;;;;;;;6.80;5.60;;;;;;;20.06;63.46;99959.06;5001756;28;20041;-69
2022/09/05 00:23:04;;;;;;;6.93;5.72;;;;;;;20.05;63.42;99978.16;5012317;28;20103;-69
2022/09/05 00:25:56;;;;;;;10.90;6.13;;;;;;;20.00;64.08;99974.84;5026688;28;20034;-69
2022/09/05 00:28:36;;;;;;;6.57;5.68;;;;;;;20.00;63.89;99969.97;5009581;28;20038;-69
2022/09/05 00:31:16;;;;;;;9.65;5.43;;;;;;;20.04;63.73;99965.16;5028546;28;20033;-69
2022/09/05 00:34:11;;;;;;;5.78;5.03;;;;;;;20.08;63.66;99970.84;5015747;28;20116;-69
2022/09/05 00:36:42;;;;;;;7.13;5.45;;;;;;;19.91;64.07;99958.88;5025993;28;20026;-69
2022/09/05 00:39:16;;;;;;;6.07;5.28;;;;;;;19.75;65.21;99963.97;5021215;28;20037;-69
2022/09/05 00:41:43;;;;;;;8.20;5.47;;;;;;;19.73;65.39;99958.66;5007683;28;20466;-69
2022/09/05 00:44:13;;;;;;;8.63;5.90;;;;;;;19.72;65.59;99957.03;4999860;28;20025;-69
2022/09/05 00:46:48;;;;;;;5.85;4.93;;;;;;;19.50;66.71;99956.75;5030592;28;20022;-69
2022/09/05 00:49:26;;;;;;;8.05;5.72;;;;;;;19.40;67.21;99953.78;5022239;28;20413;-69
2022/09/05 00:52:23;;;;;;;7.75;5.60;;;;;;;19.55;66.97;99963.28;5015487;28;20034;-69
2022/09/05 00:54:58;;;;;;;8.25;6.00;;;;;;;19.47;67.39;99966.03;5010389;28;20560;-69
2022/09/05 00:57:29;;;;;;;12.15;6.35;;;;;;;19.41;68.03;99967.56;5007577;28;20037;-69
2022/09/05 01:00:12;;;;;;;7.13;6.25;;;;;;;19.21;68.88;99964.03;5022125;28;20021;-69
2022/09/05 01:03:11;;;;;;;7.57;6.43;;;;;;;19.30;68.50;99967.41;5029305;28;20044;-69
2022/09/05 01:05:54;;;;;;;8.30;5.50;;;;;;;19.32;68.12;99967.03;4996438;28;20046;-69
2022/09/05 01:08:41;;;;;;;6.63;5.90;;;;;;;19.35;68.24;99963.44;5013926;28;20414;-69
2022/09/05 01:11:18;;;;;;;8.57;5.65;;;;;;;19.52;67.73;99966.88;5018778;28;20033;-69
2022/09/05 01:14:43;;;;;;;10.13;7.20;;;;;;;19.48;68.15;99972.50;5032328;28;20035;-69
2022/09/05 01:17:17;;;;;;;7.97;6.00;;;;;;;19.52;67.73;99972.56;4952842;29;20027;-69
2022/09/05 01:20:08;;;;;;;8.05;6.03;;;;;;;19.63;67.38;99968.69;5015260;28;20428;-69
2022/09/05 01:23:08;;;;;;;6.97;5.75;;;;;;;19.70;67.08;99973.63;5021262;28;20026;-69
2022/09/05 01:25:48;;;;;;;;;;;;;;;19.63;67.64;99968.69;4960282;28;20038;-69
2022/09/05 01:28:42;;;;;;;6.30;5.60;;;;;;;19.66;67.34;99980.47;5026463;28;19960;-69
2022/09/05 01:31:21;;;;;;;8.20;6.10;;;;;;;19.60;67.61;99979.97;5026669;28;20108;-69
2022/09/05 01:33:53;;;;;;;6.82;5.88;;;;;;;19.67;67.39;99976.41;5032421;28;20033;-69
2022/09/05 01:36:33;;;;;;;6.28;5.28;;;;;;;19.68;66.80;99987.41;5026072;28;20084;-69
2022/09/05 01:38:59;;;;;;;7.10;5.18;;;;;;;19.66;67.00;99986.13;5007543;28;20033;-69
2022/09/05 01:42:11;;;;;;;9.60;5.80;;;;;;;19.70;66.77;99978.47;5014760;28;20049;-69
2022/09/05 01:44:46;;;;;;;7.38;5.68;;;;;;;19.88;66.47;99978.69;4971541;28;20050;-69
2022/09/05 01:47:42;;;;;;;9.20;5.72;;;;;;;19.77;66.83;99973.72;4971763;28;20045;-69
2022/09/05 01:50:25;;;;;;;6.10;5.40;;;;;;;19.61;68.15;99961.75;5002397;28;20045;-69
2022/09/05 01:53:06;;;;;;;12.38;5.68;;;;;;;19.63;68.22;99957.34;5019611;28;20497;-69
2022/09/05 01:55:31;;;;;;;;;;;;;;;19.43;68.61;99953.00;5013622;28;20026;-69
2022/09/05 01:58:11;;;;;;;9.73;5.10;;;;;;;19.35;68.64;99955.72;5001855;28;19920;-69
2022/09/05 02:00:43;;;;;;;6.45;4.90;;;;;;;19.32;68.97;99953.66;5019129;28;20095;-69
2022/09/05 02:03:11;;;;;;;20.58;6.03;;;;;;;19.26;69.23;99969.38;5031729;28;20029;-69
2022/09/05 02:05:58;;;;;;;8.27;6.13;;;;;;;19.19;69.75;99964.44;5014160;28;20037;-69
2022/09/05 02:08:53;;;;;;;6.65;5.88;;;;;;;19.10;70.28;99972.38;5028559;28;20477;-69
2022/09/05 02:11:38;;;;;;;5.65;4.95;;;;;;;19.23;69.73;99967.28;5028495;28;20037;-69
2022/09/05 02:14:17;;;;;;;7.20;5.43;;;;;;;19.19;70.03;99960.75;5025765;28;20148;-69
2022/09/05 02:16:43;;;;;;;6.60;5.63;;;;;;;19.26;69.58;99972.22;5020573;28;20112;-69
2022/09/05 02:19:08;;;;;;;6.25;5.10;;;;;;;19.28;69.92;99972.66;5011181;28;20025;-69
2022/09/05 02:21:40;;;;;;;6.70;5.97;;;;;;;19.54;68.91;99970.16;5012801;28;20030;-69
2022/09/05 02:24:21;;;;;;;8.65;6.03;;;;;;;19.52;68.83;99973.41;5012422;28;20057;-69
2022/09/05 02:27:02;;;;;;;7.07;6.03;;;;;;;19.54;68.64;99965.31;5020228;28;20044;-69
2022/09/05 02:29:43;;;;;;;7.50;5.50;;;;;;;19.46;69.28;99972.09;5019508;28;20035;-69
2022/09/05 02:32:30;;;;;;;7.43;5.20;;;;;;;19.47;69.40;99971.72;5012991;28;20037;-69
2022/09/05 02:35:32;;;;;;;10.23;6.40;;;;;;;19.56;68.83;99973.44;5010644;28;20037;-69
2022/09/05 02:38:30;;;;;;;9.35;6.22;;;;;;;19.57;68.80;99969.41;5012295;28;20033;-69
2022/09/05 02:41:18;;;;;;;7.60;6.60;;;;;;;19.54;68.77;99973.00;5027956;28;20030;-69
2022/09/05 02:43:53;;;;;;;11.93;6.90;;;;;;;19.55;69.34;99974.63;5008087;28;20123;-69
2022/09/05 02:46:34;;;;;;;8.13;6.47;;;;;;;19.69;68.74;99977.69;5029833;28;20120;-69
2022/09/05 02:49:08;;;;;;;9.02;7.97;;;;;;;19.75;68.14;99990.31;5015277;28;20060;-70
2022/09/05 02:51:39;;;;;;;7.32;6.57;;;;;;;19.75;68.44;99981.78;5011320;28;20029;-69
2022/09/05 02:54:22;;;;;;;7.32;6.63;;;;;;;19.68;69.10;99980.88;5012060;28;20105;-69
2022/09/05 02:57:09;;;;;;;11.77;6.68;;;;;;;19.62;69.46;99989.75;5013723;28;20017;-69
2022/09/05 02:59:47;;;;;;;6.28;5.30;;;;;;;19.59;69.43;99993.34;5028404;28;20529;-70
2022/09/05 03:02:31;;;;;;;7.50;6.05;;;;;;;19.68;69.03;99997.91;5011934;28;20030;-69
2022/09/05 03:05:07;;;;;;;9.10;6.00;;;;;;;19.65;69.42;99999.50;5005282;28;20033;-69
2022/09/05 03:07:52;;;;;;;8.63;5.85;;;;;;;19.76;68.79;99997.63;5014983;28;20030;-69
2022/09/05 03:10:48;;;;;;;9.43;6.30;;;;;;;19.70;69.07;100004.84;5011627;28;20096;-69
2022/09/05 03:13:32;;;;;;;9.07;6.63;;;;;;;19.54;69.64;100007.88;5013844;28;20021;-69
2022/09/05 03:16:21;;;;;;;12.80;7.30;;;;;;;19.32;70.99;100010.38;5028513;28;20044;-68
2022/09/05 03:19:06;;;;;;;9.70;6.65;;;;;;;19.38;70.50;100005.19;5021532;28;20025;-69
2022/09/05 03:22:32;;;;;;;9.82;6.18;;;;;;;19.39;71.33;100012.50;5013128;28;20087;-69
2022/09/05 03:25:16;;;;;;;8.40;6.40;;;;;;;19.47;70.91;100016.25;4983534;28;20566;-69
2022/09/05 03:28:06;;;;;;;8.02;6.28;;;;;;;19.46;71.35;100009.78;5024144;28;20037;-69
2022/09/05 03:30:52;;;;;;;;;;;;;;;19.47;71.78;100019.09;5011803;28;20091;-69
2022/09/05 03:33:30;;;;;;;12.13;5.65;;;;;;;19.43;71.96;100021.91;5005739;28;20427;-69
2022/09/05 03:36:23;;;;;;;8.82;6.05;;;;;;;19.49;71.38;100030.91;5024855;28;20026;-69
2022/09/05 03:39:16;;;;;;;14.05;6.43;;;;;;;19.40;72.40;100025.47;5011084;28;20036;-69
2022/09/05 03:42:23;;;;;;;7.00;6.30;;;;;;;19.36;73.19;100030.28;5017690;28;20456;-69
2022/09/05 03:45:26;;;;;;;8.73;6.55;;;;;;;19.26;73.67;100031.78;5011250;28;20026;-69
2022/09/05 03:48:20;;;;;;;16.35;7.25;;;;;;;19.27;74.04;100035.41;5011093;28;20153;-69
2022/09/05 03:51:09;;;;;;;10.02;6.95;;;;;;;19.25;73.78;100032.97;5026458;28;20040;-69
2022/09/05 03:53:41;;;;;;;13.02;7.50;;;;;;;19.23;74.66;100038.19;5009939;28;20033;-69
2022/09/05 03:56:37;;;;;;;8.73;7.18;;;;;;;19.27;74.65;100036.25;5011299;28;20021;-69
2022/09/05 03:59:35;;;;;;;9.35;7.97;;;;;;;19.18;74.82;100038.53;5008358;28;20423;-69
2022/09/05 04:02:08;;;;;;;12.32;10.00;;;;;;;19.11;75.50;100032.72;5013433;28;20432;-69
2022/09/05 04:04:51;;;;;;;14.98;10.00;;;;;;;19.02;76.11;100039.50;5029677;28;20048;-69
2022/09/05 04:07:29;;;;;;;12.75;9.55;;;;;;;19.00;76.44;100038.22;5009162;28;20033;-68
2022/09/05 04:10:01;;;;;;;15.20;11.20;;;;;;;18.97;76.42;100039.75;5018261;28;20040;-69
2022/09/05 04:12:59;;;;;;;16.98;11.18;;;;;;;19.05;76.32;100046.41;5022480;28;20534;-70
2022/09/05 04:15:42;;;;;;;19.40;10.77;;;;;;;19.16;76.13;100041.72;4988422;28;20466;-69
2022/09/05 04:18:27;;;;;;;12.88;10.60;;;;;;;19.17;75.46;100040.53;5023725;28;20500;-69
2022/09/05 04:21:00;;;;;;;14.57;10.48;;;;;;;19.22;75.14;100047.88;5027612;28;20049;-69
2022/09/05 04:23:47;;;;;;;18.63;12.32;;;;;;;19.20;75.51;100059.63;5029980;28;20442;-71
2022/09/05 04:26:29;;;;;;;17.65;10.90;;;;;;;19.23;75.50;100049.53;5015988;28;20033;-69
2022/09/05 04:29:34;;;;;;;14.52;10.88;;;;;;;19.24;75.73;100062.50;5005639;28;20091;-69
2022/09/05 04:32:14;;;;;;;13.20;10.48;;;;;;;19.25;75.58;100054.81;5008200;28;20063;-69
2022/09/05 04:34:59;;;;;;;17.05;10.13;;;;;;;19.25;76.14;100066.16;5024583;28;20038;-69
2022/09/05 04:37:54;;;;;;;19.45;10.23;;;;;;;19.20;76.20;100064.47;5010769;28;20428;-69
2022/09/05 04:40:33;;;;;;;12.65;9.98;;;;;;;19.25;76.34;100069.84;5000614;28;20496;-73
2022/09/05 04:43:17;;;;;;;23.33;11.02;;;;;;;19.30;76.04;100077.19;5034671;28;20516;-71
2022/09/05 04:45:53;;;;;;;18.60;11.80;;;;;;;19.28;76.20;100076.75;5023247;28;20037;-70
2022/09/05 04:48:25;;;;;;;13.52;10.25;;;;;;;19.26;76.52;100088.50;5018031;28;20113;-68
2022/09/05 04:50:54;;;;;;;16.58;9.13;;;;;;;19.28;76.34;100088.09;5016849;28;20029;-67
2022/09/05 04:53:58;;;;;;;16.85;10.35;;;;;;;19.39;75.99;100086.25;5032160;28;20425;-67
2022/09/05 04:56:31;;;;;;;16.77;10.65;;;;;;;19.35;76.36;100086.19;5028111;28;20030;-66
2022/09/05 04:59:12;;;;;;;21.02;11.18;;;;;;;19.24;76.86;100095.72;5032093;28;20033;-68
2022/09/05 05:01:44;;;;;;;12.13;9.73;;;;;;;19.25;76.07;100098.19;5027371;28;20332;-67
2022/09/05 05:04:15;;;;;;;16.13;10.13;;;;;;;19.27;75.77;100095.78;5033496;28;20059;-67
2022/09/05 05:07:18;;;;;;;17.52;10.63;;;;;;;19.18;76.07;100098.84;5016188;28;20079;-68
2022/09/05 05:09:47;;;;;;;15.25;11.10;;;;;;;19.26;75.63;100096.16;5028907;28;20785;-68
2022/09/05 05:12:49;;;;;;;15.65;10.73;;;;;;;19.29;75.65;100098.22;5030517;28;20532;-68
2022/09/05 05:15:21;;;;;;;16.85;10.32;;;;;;;19.38;75.54;100098.78;5025018;28;20021;-69
2022/09/05 05:17:56;;;;;;;12.07;10.68;;;;;;;19.42;74.91;100105.34;5032368;28;20025;-68
2022/09/05 05:20:24;;;;;;;13.93;10.48;;;;;;;19.35;74.96;100108.88;5032529;28;20495;-69
2022/09/05 05:23:12;;;;;;;16.30;10.77;;;;;;;19.30;74.73;100108.38;5032309;28;20029;-68
2022/09/05 05:25:50;;;;;;;12.27;9.95;;;;;;;19.46;74.24;100113.91;5032233;28;20029;-68
2022/09/05 05:28:26;;;;;;;16.95;11.45;;;;;;;19.42;74.08;100116.69;5014955;28;20125;-68
2022/09/05 05:30:54;;;;;;;18.52;10.32;;;;;;;19.38;74.53;100117.84;5017368;28;20441;-67
2022/09/05 05:33:28;;;;;;;16.60;10.93;;;;;;;19.50;73.21;100121.28;5032004;28;20029;-68
2022/09/05 05:35:59;;;;;;;14.95;10.23;;;;;;;19.59;72.63;100115.31;5032765;28;20105;-67
2022/09/05 05:38:34;;;;;;;15.43;9.00;;;;;;;19.62;71.49;100128.78;5032719;28;20025;-68
2022/09/05 05:41:23;;;;;;;13.35;9.73;;;;;;;19.58;71.59;100127.88;5021850;28;20108;-68
2022/09/05 05:43:50;;;;;;;16.55;7.63;;;;;;;19.60;71.46;100128.31;4991761;28;20042;-69
2022/09/05 05:46:27;;;;;;;19.83;9.07;;;;;;;19.75;71.13;100134.25;5010773;28;20525;-68
2022/09/05 05:49:02;;;;;;;18.42;9.35;;;;;;;19.47;70.49;100129.72;5008176;28;20092;-68
2022/09/05 05:51:52;;;;;;;14.07;8.75;;;;;;;19.34;70.73;100135.59;5006155;28;20111;-69
2022/09/05 05:54:48;;;;;;;14.98;8.40;;;;;;;19.57;70.95;100150.97;5015790;28;20512;-72
2022/09/05 05:57:22;;;;;;;11.95;8.55;;;;;;;19.48;70.08;100137.88;5006649;28;20140;-72
2022/09/05 05:59:56;;;;;;;9.98;7.75;;;;;;;19.66;70.51;100143.00;5013523;28;20466;-71
2022/09/05 06:02:56;;;;;;;13.55;8.65;;;;;;;19.73;70.05;100142.28;5005256;28;20037;-70
2022/09/05 06:05:30;;;;;;;12.20;8.90;;;;;;;19.54;69.78;100148.88;5010165;28;20030;-70
2022/09/05 06:08:34;;;;;;;11.43;7.88;;;;;;;19.66;70.19;100156.38;5011880;28;20096;-69
2022/09/05 06:11:44;;;;;;;13.95;9.55;;;;;;;19.53;69.42;100156.59;5003104;28;20026;-68
2022/09/05 06:14:47;;;;;;;7.75;6.80;;;;;;;19.85;69.12;100149.78;4973443;28;20095;-68
2022/09/05 06:17:36;;;;;;;13.13;8.27;;;;;;;19.89;67.55;100150.63;4993220;28;20093;-71
2022/09/05 06:20:17;;;;;;;9.60;7.63;;;;;;;19.92;67.37;100153.56;5012349;28;20025;-70
2022/09/05 06:23:08;;;;;;;13.45;9.27;;;;;;;20.00;67.40;100150.84;5001348;28;20084;-70
2022/09/05 06:25:56;;;;;;;13.73;8.57;;;;;;;20.01;66.62;100153.28;5003472;28;20529;-70
2022/09/05 06:28:24;;;;;;;10.18;7.50;;;;;;;20.04;67.03;100163.06;5003040;28;20107;-70
2022/09/05 06:31:19;;;;;;;11.88;7.85;;;;;;;20.07;66.86;100159.47;5008960;28;20562;-70
2022/09/05 06:34:20;;;;;;;10.55;7.10;;;;;;;20.16;65.32;100156.34;5006922;28;20493;-70
2022/09/05 06:37:23;;;;;;;8.68;6.80;;;;;;;20.12;65.41;100164.81;4956616;28;20031;-70
2022/09/05 06:40:10;;;;;;;12.40;7.55;;;;;;;20.25;65.94;100164.59;5011283;28;20030;-71
2022/09/05 06:42:51;;;;;;;13.88;6.88;;;;;;;20.57;64.21;100162.16;5017825;28;20050;-70
2022/09/05 06:45:28;;;;;;;11.57;7.43;;;;;;;20.55;63.08;100164.56;5008808;28;20029;-70
2022/09/05 06:48:26;;;;;;;13.05;6.53;;;;;;;20.55;62.23;100158.06;5027356;28;20515;-71
2022/09/05 06:51:16;;;;;;;14.05;7.95;;;;;;;20.69;63.67;100165.94;5023773;28;20056;-70
2022/09/05 06:53:56;;;;;;;9.60;6.53;;;;;;;20.67;62.83;100163.47;5022004;28;20116;-70
2022/09/05 06:56:46;;;;;;;16.42;8.63;;;;;;;20.83;62.85;100166.13;5010749;28;20022;-70
2022/09/05 06:59:24;;;;;;;;;;;;;;;20.87;62.71;100167.00;5024067;28;20542;-72
2022/09/05 07:02:07;;;;;;;19.15;9.70;;;;;;;21.03;63.02;100166.75;5008949;28;19955;-71
2022/09/05 07:04:42;;;;;;;14.55;9.20;;;;;;;21.07;62.02;100172.50;5028207;28;20068;-71
2022/09/05 07:07:16;;;;;;;7.95;7.00;;;;;;;21.01;61.32;100172.03;5027348;28;20026;-71
2022/09/05 07:09:45;;;;;;;11.52;6.40;;;;;;;21.08;61.07;100170.47;5010148;28;20498;-73
2022/09/05 07:12:25;;;;;;;12.02;7.47;;;;;;;21.19;61.00;100162.88;5003290;28;20029;-71
2022/09/05 07:15:15;;;;;;;10.25;7.55;;;;;;;21.27;61.68;100170.25;5015235;28;20025;-71
2022/09/05 07:17:53;;;;;;;13.80;7.47;;;;;;;21.05;62.14;100180.59;5022151;28;20079;-71
2022/09/05 07:20:32;;;;;;;16.08;7.53;;;;;;;20.91;62.92;100169.88;5025140;28;20135;-71
2022/09/05 07:23:07;;;;;;;10.53;6.60;;;;;;;20.96;60.93;100174.41;5002443;28;20117;-71
2022/09/05 07:25:33;;;;;;;10.77;6.40;;;;;;;20.63;60.18;100171.16;5019886;28;20030;-72
2022/09/05 07:28:04;;;;;;;12.07;6.28;;;;;;;21.14;61.97;100183.94;5017096;28;20030;-71
2022/09/05 07:30:32;;;;;;;10.25;6.63;;;;;;;21.37;61.74;100171.56;5026909;28;20039;-71
2022/09/05 07:33:02;;;;;;;10.30;6.78;;;;;;;21.16;59.55;100164.47;5026701;28;20380;-71
2022/09/05 07:35:31;;;;;;;11.95;7.25;;;;;;;20.87;59.57;100171.88;5014532;28;20488;-71
2022/09/05 07:38:28;;;;;;;7.87;5.50;;;;;;;21.25;59.72;100171.88;5000700;28;20029;-70
2022/09/05 07:41:10;;;;;;;14.00;6.30;;;;;;;21.56;58.46;100164.00;5015362;28;20425;-72
2022/09/05 07:43:38;;;;;;;39.25;7.80;;;;;;;21.73;56.50;100168.22;5005752;28;21989;-71
2022/09/05 07:46:14;;;;;;;14.68;5.78;;;;;;;21.53;56.57;100164.78;5028846;28;20026;-71
2022/09/05 07:48:47;;;;;;;12.13;6.53;;;;;;;21.46;57.60;100166.34;5006463;28;20036;-72
2022/09/05 07:51:22;;;;;;;11.05;5.93;;;;;;;21.45;57.04;100164.72;5025938;28;20036;-72
2022/09/05 07:53:50;;;;;;;26.75;6.97;;;;;;;21.53;56.10;100164.78;5028349;28;20029;-72
2022/09/05 07:56:41;;;;;;;9.00;5.20;;;;;;;22.11;55.44;100162.41;4999778;28;20087;-72
2022/09/05 07:59:10;;;;;;;5.75;4.65;;;;;;;22.40;53.53;100166.22;5020487;28;20022;-72
2022/09/05 08:01:43;;;;;;;9.15;4.65;;;;;;;22.49;53.25;100165.88;5030020;28;20033;-72
2022/09/05 08:04:22;;;;;;;5.78;4.28;;;;;;;22.63;53.39;100164.31;5029033;28;20099;-72
2022/09/05 08:06:51;;;;;;;13.93;6.00;;;;;;;22.82;52.53;100158.28;5023825;28;20032;-72
2022/09/05 08:09:25;;;;;;;8.30;6.78;;;;;;;22.67;54.42;100153.72;5006563;28;20097;-73
2022/09/05 08:11:55;;;;;;;8.52;6.30;;;;;;;22.43;55.70;100154.00;5008447;28;20511;-72
2022/09/05 08:14:30;;;;;;;24.92;7.65;;;;;;;22.32;55.89;100147.44;5031737;28;20021;-72
2022/09/05 08:16:56;;;;;;;9.57;6.40;;;;;;;22.01;57.44;100144.84;5032813;28;20104;-72
2022/09/05 08:19:38;;;;;;;11.90;6.55;;;;;;;21.93;57.01;100148.84;5017562;28;20064;-72
2022/09/05 08:22:08;;;;;;;8.27;6.88;;;;;;;21.81;57.17;100146.31;5033712;28;20361;-72
2022/09/05 08:24:47;;;;;;;7.90;6.28;;;;;;;21.69;56.79;100139.75;5033019;28;20424;-73
2022/09/05 08:27:22;;;;;;;8.57;6.28;;;;;;;21.77;57.33;100140.59;5028464;28;20033;-73
2022/09/05 08:29:59;;;;;;;8.88;6.90;;;;;;;21.77;57.60;100132.06;5031104;28;20116;-72
2022/09/05 08:32:30;;;;;;;10.30;6.07;;;;;;;21.91;56.06;100139.09;5000737;28;20096;-72
2022/09/05 08:35:05;;;;;;;9.88;6.82;;;;;;;22.22;56.24;100126.25;5033616;28;20029;-71
2022/09/05 08:37:32;;;;;;;11.43;6.63;;;;;;;22.47;56.37;100136.94;5033185;28;20026;-71
2022/09/05 08:40:06;;;;;;;11.85;7.68;;;;;;;22.57;54.41;100127.66;5016574;28;20033;-71
2022/09/05 08:43:07;;;;;;;7.60;6.78;;;;;;;22.53;54.45;100120.28;5016383;28;20155;-72
2022/09/05 08:45:42;;;;;;;7.57;6.80;;;;;;;22.54;55.46;100130.47;4991555;28;20048;-73
2022/09/05 08:48:18;;;;;;;13.75;7.97;;;;;;;22.76;53.19;100119.94;5032123;28;20037;-73
2022/09/05 08:51:08;;;;;;;19.67;8.23;;;;;;;22.90;51.66;100124.06;5031352;28;20633;-74
2022/09/05 08:54:15;;;;;;;9.43;7.32;;;;;;;23.06;52.02;100120.81;5010326;28;20048;-72
2022/09/05 08:56:46;;;;;;;13.88;6.85;;;;;;;23.34;51.33;100117.22;5010276;28;20416;-72
2022/09/05 08:59:22;;;;;;;10.18;7.38;;;;;;;23.49;50.40;100120.06;5028887;28;20029;-72
2022/09/05 09:02:02;;;;;;;9.05;7.43;;;;;;;23.59;51.48;100113.53;5008408;28;20160;-72
2022/09/05 09:04:43;;;;;;;10.27;7.53;;;;;;;23.70;50.64;100108.63;5007338;28;20032;-73
2022/09/05 09:07:23;;;;;;;24.25;8.00;;;;;;;23.40;51.78;100114.75;5033729;28;20029;-74
2022/09/05 09:10:16;;;;;;;10.07;7.75;;;;;;;22.81;51.92;100107.34;5017134;28;20479;-73
2022/09/05 09:13:10;;;;;;;12.68;7.88;;;;;;;22.33;52.84;100102.69;5006124;28;20029;-73
2022/09/05 09:15:48;;;;;;;11.00;9.10;;;;;;;22.05;53.54;100116.38;5026621;28;20057;-69
2022/09/05 09:18:16;;;;;;;23.35;9.98;;;;;;;22.32;53.42;100101.03;5032092;28;20190;-69
2022/09/05 09:21:18;;;;;;;13.73;7.85;;;;;;;22.63;52.80;100104.44;5033517;28;20118;-73
2022/09/05 09:23:49;;;;;;;16.33;8.23;;;;;;;23.03;51.97;100111.03;5032889;28;20038;-74
2022/09/05 09:26:16;;;;;;;16.23;8.75;;;;;;;22.84;51.58;100110.19;5014655;28;20037;-73
2022/09/05 09:28:52;;;;;;;9.25;7.78;;;;;;;22.83;51.12;100111.41;5033135;28;20615;-73
2022/09/05 09:31:44;;;;;;;9.27;8.40;;;;;;;22.79;51.15;100096.31;5014826;28;20408;-73
2022/09/05 09:34:24;;;;;;;11.80;8.65;;;;;;;22.87;51.25;100114.28;5029196;28;20117;-74
2022/09/05 09:36:52;;;;;;;10.73;8.10;;;;;;;22.93;50.77;100121.22;5014984;28;20480;-74
2022/09/05 09:39:45;;;;;;;9.35;6.68;;;;;;;23.13;50.16;100113.09;5024138;28;20025;-73
2022/09/05 09:42:10;;;;;;;11.90;8.27;;;;;;;23.12;50.16;100111.47;5020995;28;20053;-74
2022/09/05 09:45:03;;;;;;;11.35;7.90;;;;;;;23.30;49.54;100109.88;5032817;28;20029;-73
2022/09/05 09:47:56;;;;;;;12.60;9.23;;;;;;;23.21;50.13;100116.75;5032691;28;20032;-73
2022/09/05 09:50:31;;;;;;;13.25;7.60;;;;;;;23.49;49.05;100120.06;5020828;28;20515;-74
2022/09/05 09:53:14;;;;;;;11.30;7.68;;;;;;;23.74;47.81;100116.38;5031171;28;20029;-73
2022/09/05 09:56:05;;;;;;;6.93;6.22;;;;;;;23.57;47.43;100115.97;5010948;28;20120;-73
2022/09/05 09:58:49;;;;;;;10.45;8.15;;;;;;;23.65;49.43;100111.06;5007720;28;20426;-74
2022/09/05 10:01:34;;;;;;;13.63;6.80;;;;;;;24.01;46.44;100113.03;5014121;28;20095;-74
2022/09/05 10:04:14;;;;;;;13.20;7.20;;;;;;;24.07;46.97;100114.28;5024362;28;20504;-73
2022/09/05 10:07:03;;;;;;;8.05;7.28;;;;;;;24.40;46.52;100117.84;5013916;28;20041;-74
2022/09/05 10:10:06;;;;;;;11.27;7.27;;;;;;;24.35;45.93;100116.22;5031327;28;20060;-73
2022/09/05 10:13:09;;;;;;;9.10;6.85;;;;;;;24.49;46.29;100118.19;5012678;28;20416;-74
2022/09/05 10:16:26;;;;;;;9.15;6.97;;;;;;;24.77;44.91;100112.78;5023580;28;20563;-73
2022/09/05 10:19:10;;;;;;;8.07;6.65;;;;;;;24.85;44.13;100111.50;5032504;28;20112;-74
2022/09/05 10:22:25;;;;;;;7.38;6.68;;;;;;;25.00;44.21;100103.66;5013867;28;20021;-74
2022/09/05 10:25:34;;;;;;;11.10;7.75;;;;;;;25.45;44.18;100108.63;4931415;28;20570;-74
2022/09/05 10:28:21;;;;;;;11.93;6.38;;;;;;;25.68;43.05;100104.34;5026398;28;20102;-74
2022/09/05 10:31:07;;;;;;;9.38;7.38;;;;;;;25.45;43.18;100102.06;5030874;28;20029;-74
2022/09/05 10:33:41;;;;;;;8.02;6.68;;;;;;;25.55;43.49;100094.66;5020172;28;20577;-74
2022/09/05 10:36:23;;;;;;;7.43;6.68;;;;;;;25.38;42.18;100102.94;5013178;28;20030;-74
2022/09/05 10:39:03;;;;;;;8.50;7.32;;;;;;;25.18;43.44;100103.53;5007844;28;20128;-74
2022/09/05 10:41:57;;;;;;;7.78;6.55;;;;;;;25.16;42.51;100102.31;5006794;28;20057;-74
2022/09/05 10:44:41;;;;;;;7.35;5.93;;;;;;;24.94;42.25;100093.88;4994024;28;20053;-74
2022/09/05 10:47:42;;;;;;;8.82;6.65;;;;;;;24.72;42.25;100101.75;5027282;28;20025;-74
2022/09/05 10:50:29;;;;;;;12.35;5.85;;;;;;;24.67;40.92;100085.84;5028708;28;20036;-74
2022/09/05 10:53:13;;;;;;;6.57;5.50;;;;;;;24.78;40.69;100089.50;5016893;28;20029;-74
2022/09/05 10:56:05;;;;;;;10.50;5.50;;;;;;;25.09;40.82;100091.72;5011384;28;20033;-74
2022/09/05 10:59:00;;;;;;;9.57;5.40;;;;;;;25.04;40.63;100075.00;5031576;28;20025;-74
2022/09/05 11:01:34;;;;;;;30.90;6.50;;;;;;;25.21;41.20;100078.94;5028811;28;20057;-74
2022/09/05 11:04:24;;;;;;;6.82;5.60;;;;;;;24.95;40.95;100069.75;5013051;28;20025;-74
2022/09/05 11:06:56;;;;;;;6.45;5.50;;;;;;;25.19;39.67;100072.84;5026656;28;20032;-74
2022/09/05 11:09:48;;;;;;;9.18;5.93;;;;;;;25.49;40.95;100068.53;5024623;28;23124;-74
2022/09/05 11:12:48;;;;;;;6.97;5.30;;;;;;;25.71;39.28;100059.72;4999774;28;20453;-74
2022/09/05 11:15:23;;;;;;;8.13;5.97;;;;;;;26.06;40.01;100060.53;5009380;28;20137;-73
2022/09/05 11:18:02;;;;;;;7.07;6.35;;;;;;;25.90;39.39;100059.09;5003328;28;20056;-72
2022/09/05 11:21:07;;;;;;;7.60;5.22;;;;;;;26.05;39.02;100047.44;5014630;28;20045;-74
2022/09/05 11:23:53;;;;;;;7.82;6.32;;;;;;;26.30;39.75;100040.63;4984623;28;20168;-77
2022/09/05 11:26:29;;;;;;;9.20;7.50;;;;;;;26.18;38.36;100047.72;5003907;28;20030;-75
2022/09/05 11:29:04;;;;;;;13.15;7.70;;;;;;;25.57;40.08;100027.13;5009757;28;20032;-75
2022/09/05 11:31:58;;;;;;;9.68;6.88;;;;;;;26.03;40.03;100032.75;5008204;28;20756;-73
2022/09/05 11:34:45;;;;;;;6.70;5.90;;;;;;;26.28;39.01;100025.91;5004863;28;20053;-73
2022/09/05 11:37:49;;;;;;;14.50;8.63;;;;;;;26.41;38.91;100032.69;5006651;28;20459;-72
2022/09/05 11:40:33;;;;;;;7.38;6.45;;;;;;;25.84;38.75;100029.28;5021117;28;20041;-70
2022/09/05 11:43:10;;;;;;;10.05;6.78;;;;;;;26.17;39.06;100026.81;5012167;28;20124;-73
2022/09/05 11:46:00;;;;;;;8.02;6.30;;;;;;;26.31;38.29;100019.31;5028225;28;20037;-72
2022/09/05 11:48:54;;;;;;;13.57;5.70;;;;;;;25.77;38.31;100012.19;5011646;28;20501;-72
2022/09/05 11:52:06;;;;;;;10.32;5.75;;;;;;;25.99;38.33;100015.59;5026201;28;20025;-75
2022/09/05 11:55:09;;;;;;;7.28;5.97;;;;;;;25.86;38.47;100017.38;5026373;28;20026;-72
2022/09/05 11:58:12;;;;;;;6.53;5.80;;;;;;;25.72;37.56;100004.88;5009463;28;20022;-71
2022/09/05 12:00:47;;;;;;;7.93;4.80;;;;;;;26.19;37.70;100007.19;5023469;28;20037;-73
2022/09/05 12:03:44;;;;;;;5.57;4.55;;;;;;;26.41;37.93;100000.34;5029496;28;20029;-71
2022/09/05 12:06:28;;;;;;;8.15;5.47;;;;;;;26.12;36.72;100003.56;5014750;28;20025;-74
2022/09/05 12:09:11;;;;;;;4.90;4.50;;;;;;;25.91;36.89;99994.81;5031062;28;20037;-72
2022/09/05 12:11:46;;;;;;;9.23;5.13;;;;;;;26.16;37.15;99990.00;5007484;28;20065;-70
2022/09/05 12:14:36;;;;;;;5.10;4.38;;;;;;;25.87;37.14;99988.31;5027076;28;20026;-72
2022/09/05 12:17:22;;;;;;;6.00;4.85;;;;;;;26.10;36.84;99985.97;5026571;28;20025;-72
2022/09/05 12:20:09;;;;;;;8.23;5.07;;;;;;;26.06;36.26;99981.13;5009969;28;20037;-70
2022/09/05 12:22:55;;;;;;;5.53;4.68;;;;;;;26.09;36.48;99982.31;5027228;28;20216;-71
2022/09/05 12:25:35;;;;;;;5.25;4.75;;;;;;;25.99;37.67;99977.53;5025778;28;20033;-69
2022/09/05 12:28:07;;;;;;;5.03;4.53;;;;;;;26.23;36.14;99963.34;5000807;28;20037;-73
2022/09/05 12:30:38;;;;;;;6.75;4.75;;;;;;;26.44;36.60;99974.50;5003935;28;20666;-74
2022/09/05 12:33:09;;;;;;;5.03;4.63;;;;;;;26.76;36.58;99970.28;5029953;28;20463;-73
2022/09/05 12:36:12;;;;;;;4.63;4.22;;;;;;;26.59;35.64;99965.66;5011856;28;20087;-72
2022/09/05 12:38:51;;;;;;;5.68;5.15;;;;;;;26.90;36.10;99969.25;4974316;28;20041;-72